Rosairo, Brazil
Current Conditions -  °F | °C
As of 8:00 AM on Tuesday 21 Oct 2014 (Local Time) from SBSL Reporting Station
Scattered Clouds Scattered Clouds  
Wind Chill: 84°   Ceiling: Unl
Heat Index: 87°   Visibility: 6mi
Dew Point: 68°   Wind: 16mph
Humidity: 58%   Direction: 60°ENE
Pressure: 29.88"   Gusts: NA
Location:  2.65°S, 44.25°W
Report Text: SBSL 211100Z 06014KT 9999 SCT020 29/20 Q1012
Loading
Personal Weather Stations






























Interactive Weather Map
Tropical Storm Tracking
New forecast layout! Learn more

10-Day Weather Forecast

Advertisements
Track Severe Weather on mobile